Accueil
METAR-TAF:

METAR-TAF

Aéroports :

Base aérienne 120 Cazaux

Cazaux, France

latitude: 44-32N, longitude: 001-08W, altitude: 25 m

Observation

Le bulletin a été fait il y a 19 minutes, à 06:00 UTC
Vent 1 kt de ouest
Température 4°C
Humidité 100%
Pression 1018 hPa
Visibilité: 9000 m

METAR: LFBC 080600Z AUTO 27001KT 9000 NSC 04/04 Q1018 NOSIG

Heure: 07:19 (06:19 UTC)

Prévision

Le bulletin a été fait il y a 49 minutes, à 05:30 UTC
Prévision valable du 08 à 05 UTC au 09 à 03 UTC
Vent 2 kt de direction variable
Visibilité: 8000 m

TAF: LFBC 080530Z 0805/0903 VRB02KT 8000 NSC

Observations et prévisions météorologiques de plus de 4000 aéroports (messages METAR et TAF).

Les stations disponibles sont représentées par des disques jaunes et rouges sur la carte.

Passer la souris dessus pour voir le nom de la station.

Cliquer dessus pour voir les observations et prévisions météorologiques.

Pour changer de carte: cliquez sur les boutons verts avec une croix noire pour zoomer, sur le bouton vert avec un tiret pour effectuer un zoom arrière, ou sur les flèches vertes pour les cartes adjacentes.


METAR-TAF: